createdAt,value
2022-10-11T10:50:52.874Z,3.22
2022-10-11T10:53:24.452Z,3.70
2022-10-11T10:55:48.151Z,3.50
2022-10-11T10:58:25.980Z,2.85
2022-10-11T11:00:49.944Z,3.20
2022-10-11T11:03:26.664Z,3.83
2022-10-11T11:06:04.190Z,3.58
2022-10-11T11:08:45.469Z,3.45
2022-10-11T11:11:26.681Z,3.00
2022-10-11T11:13:59.302Z,3.45
2022-10-11T11:16:38.309Z,2.65
2022-10-11T11:19:05.849Z,2.83
2022-10-11T11:21:46.868Z,2.30
2022-10-11T11:24:11.632Z,2.08
2022-10-11T11:26:44.413Z,2.75
2022-10-11T11:29:13.107Z,2.78
2022-10-11T11:31:41.229Z,3.22
2022-10-11T11:34:33.097Z,2.47
2022-10-11T11:37:04.472Z,2.90
2022-10-11T11:39:32.627Z,3.13
2022-10-11T11:42:23.830Z,2.90
2022-10-11T11:44:50.404Z,3.67
2022-10-11T11:47:27.641Z,3.40
2022-10-11T11:50:03.529Z,3.05
2022-10-11T11:52:37.804Z,2.45
2022-10-11T11:55:04.181Z,3.03
2022-10-11T11:57:26.633Z,2.40
2022-10-11T12:00:04.064Z,2.90
2022-10-11T12:02:39.934Z,2.65
2022-10-11T12:05:02.387Z,3.10
2022-10-11T12:07:25.939Z,2.83
2022-10-11T12:09:52.885Z,2.58
2022-10-11T12:12:29.761Z,3.17
2022-10-11T12:14:53.313Z,2.67
2022-10-11T12:17:18.644Z,2.80
2022-10-11T12:19:59.385Z,2.45
2022-10-11T12:22:27.676Z,2.38
2022-10-11T12:25:00.584Z,2.72
2022-10-11T12:27:41.619Z,2.75
2022-10-11T12:30:05.104Z,2.50
2022-10-11T12:32:27.301Z,2.05
2022-10-11T12:34:52.374Z,2.40
2022-10-11T12:37:20.783Z,2.80
2022-10-11T12:39:52.060Z,2.25
2022-10-11T12:42:22.499Z,2.45
2022-10-11T12:45:04.964Z,2.72
2022-10-11T12:47:56.545Z,2.42
2022-10-11T12:50:43.459Z,2.45
2022-10-11T12:53:17.965Z,2.42
2022-10-11T12:56:06.582Z,2.55
2022-10-11T12:58:41.505Z,2.63
2022-10-11T13:01:03.716Z,2.80
2022-10-11T13:03:31.111Z,2.95
2022-10-11T13:06:01.476Z,2.70
2022-10-11T13:08:32.193Z,3.03
2022-10-11T13:10:56.607Z,3.05
2022-10-11T13:13:23.773Z,3.00
2022-10-11T13:15:46.228Z,2.63
2022-10-11T13:18:15.957Z,2.33
2022-10-11T13:20:42.484Z,2.53
2022-10-11T13:23:20.281Z,2.70
2022-10-11T13:25:42.829Z,2.50
2022-10-11T13:28:09.533Z,2.60
2022-10-11T13:30:34.258Z,2.45
2022-10-11T13:32:57.153Z,2.80
2022-10-11T13:35:26.604Z,2.75
2022-10-11T13:37:49.547Z,3.00
2022-10-11T13:40:15.828Z,2.50
2022-10-11T13:42:38.029Z,2.35
2022-10-11T13:45:03.266Z,2.22
2022-10-11T13:47:26.986Z,2.97
2022-10-11T13:49:53.480Z,2.20
2022-10-11T13:52:19.307Z,2.70
2022-10-11T13:55:01.686Z,3.08
2022-10-11T13:57:31.385Z,2.42
2022-10-11T13:59:53.618Z,2.88
2022-10-11T14:02:18.756Z,2.17
2022-10-11T14:04:41.707Z,2.40
2022-10-11T14:07:04.145Z,2.58
2022-10-11T14:09:28.839Z,2.40
2022-10-11T14:11:52.219Z,2.88
2022-10-11T14:14:29.802Z,2.28
2022-10-11T14:17:04.630Z,2.97
2022-10-11T14:19:26.889Z,2.78
2022-10-11T14:21:51.419Z,2.75
2022-10-11T14:24:14.505Z,2.95
2022-10-11T14:26:38.210Z,2.50
2022-10-11T14:29:01.819Z,2.85
2022-10-11T14:31:24.832Z,3.25
2022-10-11T14:33:47.065Z,3.20
2022-10-11T14:36:09.300Z,3.28
2022-10-11T14:38:31.593Z,3.00
2022-10-11T14:40:53.785Z,3.00
2022-10-11T14:43:16.063Z,2.85
2022-10-11T14:45:38.383Z,2.97
2022-10-11T14:48:01.032Z,2.67
2022-10-11T14:50:29.617Z,2.42
2022-10-11T14:52:51.883Z,2.45
2022-10-11T14:55:14.151Z,2.75
2022-10-11T14:57:36.369Z,2.38
2022-10-11T14:59:58.593Z,2.47
2022-10-11T15:02:24.191Z,2.65
2022-10-11T15:04:46.395Z,2.10
2022-10-11T15:07:08.712Z,2.70
2022-10-11T15:09:31.417Z,2.97
2022-10-11T15:11:54.739Z,2.22
2022-10-11T15:14:17.317Z,2.35
2022-10-11T15:16:42.632Z,2.40
2022-10-11T15:19:05.050Z,2.28
2022-10-11T15:21:30.271Z,3.00
2022-10-11T15:23:53.029Z,2.42
2022-10-11T15:26:16.317Z,2.33
2022-10-11T15:28:38.536Z,2.50
2022-10-11T15:31:00.890Z,1.90
2022-10-11T15:33:23.244Z,2.17
2022-10-11T15:35:45.445Z,2.25
2022-10-11T15:38:07.638Z,2.13
2022-10-11T15:40:36.824Z,2.08
2022-10-11T15:42:59.069Z,2.10
2022-10-11T15:45:21.897Z,2.45
2022-10-11T15:47:44.914Z,2.38
2022-10-11T15:50:13.261Z,2.60
2022-10-11T15:52:35.456Z,3.97
2022-10-11T15:54:57.682Z,2.40
2022-10-11T15:57:19.889Z,2.35
2022-10-11T15:59:42.160Z,2.42
2022-10-11T16:02:04.407Z,1.92
2022-10-11T16:04:26.758Z,2.05
2022-10-11T16:06:49.050Z,2.22
2022-10-11T16:09:18.725Z,2.05
2022-10-11T16:11:41.375Z,2.05
2022-10-11T16:14:04.161Z,1.75
2022-10-11T16:16:30.039Z,2.08
2022-10-11T16:18:58.646Z,2.10
2022-10-11T16:21:23.648Z,2.25
2022-10-11T16:26:32.380Z,1.80
2022-10-11T16:31:41.835Z,2.20
2022-10-11T16:34:07.752Z,1.83
2022-10-11T16:36:35.859Z,2.10
2022-10-11T16:39:00.833Z,1.77
2022-10-11T16:41:23.583Z,2.45
2022-10-11T16:43:45.964Z,2.37
2022-10-11T16:46:13.972Z,2.00
2022-10-11T16:51:17.488Z,2.70
2022-10-11T16:53:40.675Z,2.43
2022-10-11T16:56:10.232Z,2.53
2022-10-11T16:58:39.240Z,2.40
2022-10-11T17:01:03.958Z,2.50
2022-10-11T17:03:29.649Z,3.17
2022-10-11T17:05:55.262Z,2.50
2022-10-11T17:11:08.501Z,3.93
2022-10-11T17:13:37.690Z,5.97
2022-10-11T17:16:02.994Z,3.27
2022-10-11T17:18:30.788Z,3.30
2022-10-11T17:21:02.219Z,4.17
2022-10-11T17:23:25.406Z,3.73
2022-10-11T17:25:49.318Z,3.23
2022-10-11T17:28:15.878Z,2.83
2022-10-11T17:30:47.167Z,3.10
2022-10-11T17:33:14.103Z,3.00
2022-10-11T17:35:39.468Z,3.00
2022-10-11T17:38:05.985Z,3.80
2022-10-11T17:40:30.359Z,3.17
2022-10-11T17:42:55.678Z,3.73
2022-10-11T17:45:28.476Z,3.10
2022-10-11T17:47:57.157Z,3.30
2022-10-11T17:50:21.256Z,2.83
2022-10-11T17:52:44.197Z,2.80
2022-10-11T17:55:07.135Z,3.10
2022-10-11T17:57:32.970Z,2.73
2022-10-11T17:59:55.498Z,2.50
2022-10-11T18:02:19.125Z,3.13
2022-10-11T18:04:45.196Z,3.20
2022-10-11T18:07:07.609Z,3.47
2022-10-11T18:09:32.428Z,3.43
2022-10-11T18:11:56.991Z,3.47
2022-10-11T18:14:28.367Z,3.10
2022-10-11T18:16:53.276Z,2.80
2022-10-11T18:19:22.045Z,3.10
2022-10-11T18:21:49.831Z,3.40
2022-10-11T18:24:15.232Z,3.27
2022-10-11T18:29:26.923Z,3.13
2022-10-11T18:31:49.554Z,3.07
2022-10-11T18:34:15.486Z,3.40
2022-10-11T18:36:38.335Z,3.07
2022-10-11T18:39:02.967Z,2.80
2022-10-11T18:41:39.549Z,3.23
2022-10-11T18:44:17.332Z,2.53
2022-10-11T18:46:39.731Z,3.43
2022-10-11T18:49:04.786Z,3.83
2022-10-11T18:51:32.081Z,3.37
2022-10-11T18:54:01.485Z,3.80
2022-10-11T18:56:24.846Z,3.07
2022-10-11T18:58:47.694Z,3.10
2022-10-11T19:01:18.346Z,3.27
2022-10-11T19:03:40.852Z,3.70
2022-10-11T19:06:07.068Z,5.33
2022-10-11T19:08:38.460Z,17.40
2022-10-11T19:11:07.947Z,18.07
2022-10-11T19:13:33.765Z,12.93
2022-10-11T19:15:56.202Z,7.90
2022-10-11T19:18:29.593Z,7.97
2022-10-11T19:21:00.223Z,5.63
2022-10-11T19:23:25.648Z,4.40
2022-10-11T19:25:47.958Z,4.20
2022-10-11T19:28:15.756Z,4.53
2022-10-11T19:30:38.304Z,3.90
2022-10-11T19:33:04.672Z,4.30
2022-10-11T19:35:34.719Z,4.03
2022-10-11T19:37:57.241Z,4.00
2022-10-11T19:40:19.810Z,3.47
2022-10-11T19:42:42.344Z,3.80
2022-10-11T19:45:11.027Z,3.53
2022-10-11T19:47:34.713Z,3.43
2022-10-11T19:49:57.132Z,3.63
2022-10-11T19:52:22.247Z,3.90
2022-10-11T19:54:51.021Z,3.63
2022-10-11T19:57:15.509Z,3.47
2022-10-11T19:59:41.219Z,4.17
2022-10-11T20:02:03.558Z,5.77
2022-10-11T20:07:10.021Z,5.00
2022-10-11T20:09:32.478Z,4.43
2022-10-11T20:11:55.139Z,4.30
2022-10-11T20:14:26.763Z,4.50
2022-10-11T20:16:50.897Z,5.20
2022-10-11T20:19:27.797Z,4.97
2022-10-11T20:22:02.257Z,4.97
2022-10-11T20:24:27.619Z,5.33
2022-10-11T20:26:50.487Z,5.30
2022-10-11T20:29:16.027Z,5.03
2022-10-11T20:31:40.769Z,4.33
2022-10-11T20:34:07.546Z,4.50
2022-10-11T20:36:34.370Z,6.30
2022-10-11T20:38:59.191Z,6.30
2022-10-11T20:41:26.244Z,5.10
2022-10-11T20:43:56.642Z,4.50
2022-10-11T20:46:20.125Z,5.93
2022-10-11T20:48:49.379Z,5.23
2022-10-11T20:51:24.437Z,6.67
2022-10-11T20:53:50.450Z,5.33
2022-10-11T20:56:14.123Z,5.03
2022-10-11T20:58:43.012Z,5.77
2022-10-11T21:01:16.474Z,6.30
2022-10-11T21:03:39.008Z,5.60
2022-10-11T21:06:01.187Z,5.27
2022-10-11T21:08:23.968Z,6.53
2022-10-11T21:10:51.752Z,6.90
2022-10-11T21:13:13.944Z,6.73
2022-10-11T21:15:36.850Z,5.47
2022-10-11T21:17:59.183Z,6.07
2022-10-11T21:20:21.440Z,11.27
2022-10-11T21:22:43.628Z,22.30
2022-10-11T21:25:06.008Z,18.80
2022-10-11T21:27:28.860Z,21.40
2022-10-11T21:29:51.512Z,12.37
2022-10-11T21:32:14.589Z,18.47
2022-10-11T21:34:36.896Z,32.53
2022-10-11T21:37:00.458Z,22.07
2022-10-11T21:39:22.653Z,16.13
2022-10-11T21:41:44.811Z,24.43
2022-10-11T21:44:07.892Z,15.40
2022-10-11T21:47:01.103Z,10.60
2022-10-11T21:49:14.330Z,9.10
2022-10-11T21:51:36.736Z,6.47
2022-10-11T21:54:02.901Z,5.63
2022-10-11T21:56:25.113Z,6.23
2022-10-11T21:58:48.229Z,6.20
2022-10-11T22:01:12.059Z,5.87
2022-10-11T22:03:34.360Z,6.10
2022-10-11T22:05:56.560Z,6.17
2022-10-11T22:08:18.988Z,6.00
2022-10-11T22:10:53.372Z,6.13
2022-10-11T22:13:15.595Z,6.00
2022-10-11T22:15:38.371Z,6.20
2022-10-11T22:18:00.599Z,5.67
2022-10-11T22:20:22.809Z,5.73
2022-10-11T22:22:44.980Z,6.13
2022-10-11T22:25:07.337Z,5.97
2022-10-11T22:27:29.537Z,5.87
2022-10-11T22:29:51.767Z,5.50
2022-10-11T22:32:13.946Z,5.80
2022-10-11T22:34:36.380Z,5.87
2022-10-11T22:36:58.631Z,5.40
2022-10-11T22:39:20.812Z,5.30
2022-10-11T22:41:42.995Z,5.50
2022-10-11T22:44:06.029Z,5.87
2022-10-11T22:46:28.211Z,5.70
2022-10-11T22:48:50.441Z,5.67
2022-10-11T22:51:12.711Z,5.03
2022-10-11T22:53:34.872Z,5.87
2022-10-11T22:55:57.156Z,5.27
2022-10-11T22:58:19.367Z,5.90
2022-10-11T23:00:41.548Z,4.67
2022-10-11T23:03:03.772Z,5.40
2022-10-11T23:05:26.029Z,4.73
2022-10-11T23:07:48.324Z,4.93
2022-10-11T23:10:10.533Z,5.40
2022-10-11T23:12:32.780Z,5.17
2022-10-11T23:14:54.989Z,4.50
2022-10-11T23:17:17.403Z,5.00
2022-10-11T23:19:39.876Z,5.20
2022-10-11T23:22:02.061Z,4.73
2022-10-11T23:24:24.329Z,5.13
2022-10-11T23:26:46.526Z,4.80
2022-10-11T23:29:08.730Z,5.63
2022-10-11T23:31:30.938Z,5.23
2022-10-11T23:33:54.371Z,5.40
2022-10-11T23:36:21.352Z,5.03
2022-10-11T23:38:43.924Z,5.60
2022-10-11T23:41:06.104Z,5.13
2022-10-11T23:43:28.652Z,5.20
2022-10-11T23:45:51.208Z,4.87
2022-10-11T23:48:13.555Z,5.50
2022-10-11T23:50:35.745Z,5.77
2022-10-11T23:52:57.911Z,5.47
2022-10-11T23:55:20.144Z,6.20
2022-10-11T23:57:42.428Z,5.60
